Time;durP1;ratioP1;P1;durP2;ratioP2;P2;SDS_P1;SDS_P2;PMS_P1;PMS_P2;Temp;Humidity;BMP_temperature;BMP_pressure;BME280_temperature;BME280_humidity;BME280_pressure;Samples;Min_cycle;Max_cycle;Signal;HPM_P1;HPM_P2
2023/08/02 00:02:14;;;;;;;;;;;;;;;;;;2215885;66;1281;-23
2023/08/02 00:04:44;;;;;;;;;;;;;;;;;;2216241;59;1780;-23
2023/08/02 00:07:14;;;;;;;;;;;;;;;;;;2215173;66;2227;-23
2023/08/02 00:09:44;;;;;;;;;;;;;;;;;;2216465;66;2168;-23
2023/08/02 00:12:15;;;;;;;;;;;;;;;;;;2215911;66;2422;-23
2023/08/02 00:14:45;;;;;;;;;;;;;;;;;;2213582;66;2049;-23
2023/08/02 00:17:15;;;;;;;;;;;;;;;;;;2215961;66;1801;-23
2023/08/02 00:19:48;;;;;;;;;;;;;;;;;;2216486;66;1800;-23
2023/08/02 00:22:19;;;;;;;;;;;;;;;;;;2215978;59;1985;-23
2023/08/02 00:24:49;;;;;;;;;;;;;;;;;;2216312;66;2509;-23
2023/08/02 00:27:19;;;;;;;;;;;;;;;;;;2216078;59;2165;-23
2023/08/02 00:29:49;;;;;;;;;;;;;;;;;;2216390;66;2442;-24
2023/08/02 00:32:19;;;;;;;;;;;;;;;;;;2213017;58;2008;-23
2023/08/02 00:34:54;;;;;;;;;;;;;;;;;;2215849;66;2629;-23
2023/08/02 00:37:29;;;;;;;;;;;;;;;;;;2216080;58;1830;-23
2023/08/02 00:39:59;;;;;;;;;;;;;;;;;;2215988;66;2257;-23
2023/08/02 00:42:29;;;;;;;;;;;;;;;;;;2213570;66;2560;-23
2023/08/02 00:45:00;;;;;;;;;;;;;;;;;;2216100;58;2011;-23
2023/08/02 00:47:33;;;;;;;;;;;;;;;;;;2216643;66;1857;-23
2023/08/02 00:50:04;;;;;;;;;;;;;;;;;;2215805;58;3025;-23
2023/08/02 00:52:35;;;;;;;;;;;;;;;;;;2213628;59;2010;-23
2023/08/02 00:55:05;;;;;;;;;;;;;;;;;;2216468;58;2660;-23
2023/08/02 00:57:35;;;;;;;;;;;;;;;;;;2217443;58;1936;-23
2023/08/02 01:00:06;;;;;;;;;;;;;;;;;;2216393;58;1959;-23
2023/08/02 01:02:36;;;;;;;;;;;;;;;;;;2215928;59;2271;-23
2023/08/02 01:05:07;;;;;;;;;;;;;;;;;;2216480;58;2313;-23
2023/08/02 01:07:37;;;;;;;;;;;;;;;;;;2215174;66;2507;-23
2023/08/02 01:10:07;;;;;;;;;;;;;;;;;;2215292;58;2431;-23
2023/08/02 01:12:39;;;;;;;;;;;;;;;;;;2212805;66;1956;-24
2023/08/02 01:15:10;;;;;;;;;;;;;;;;;;2212966;66;1798;-23
2023/08/02 01:17:43;;;;;;;;;;;;;;;;;;2216330;66;2078;-23
2023/08/02 01:20:14;;;;;;;;;;;;;;;;;;2216324;66;2492;-23
2023/08/02 01:22:44;;;;;;;;;;;;;;;;;;2213249;66;2627;-23
2023/08/02 01:25:14;;;;;;;;;;;;;;;;;;2213029;59;2564;-23
2023/08/02 01:27:51;;;;;;;;;;;;;;;;;;2216245;66;2766;-23
2023/08/02 01:30:22;;;;;;;;;;;;;;;;;;2213907;58;2478;-23
2023/08/02 01:32:53;;;;;;;;;;;;;;;;;;2216579;59;2279;-23
2023/08/02 01:35:25;;;;;;;;;;;;;;;;;;2216261;66;1596;-23
2023/08/02 01:37:56;;;;;;;;;;;;;;;;;;2215340;59;1791;-23
2023/08/02 01:40:26;;;;;;;;;;;;;;;;;;2216038;66;1781;-23
2023/08/02 01:42:56;;;;;;;;;;;;;;;;;;2215735;66;1879;-23
2023/08/02 01:45:26;;;;;;;;;;;;;;;;;;2215948;58;2289;-23
2023/08/02 01:47:57;;;;;;;;;;;;;;;;;;2213211;66;2089;-23
2023/08/02 01:50:27;;;;;;;;;;;;;;;;;;2216382;58;2811;-23
2023/08/02 01:52:57;;;;;;;;;;;;;;;;;;2215540;58;1936;-23
2023/08/02 01:55:30;;;;;;;;;;;;;;;;;;2216298;58;1732;-23
2023/08/02 01:58:00;;;;;;;;;;;;;;;;;;2215714;59;1792;-23
2023/08/02 02:00:31;;;;;;;;;;;;;;;;;;2216326;58;1897;-23
2023/08/02 02:03:01;;;;;;;;;;;;;;;;;;2215391;66;1965;-23
2023/08/02 02:05:31;;;;;;;;;;;;;;;;;;2216035;59;1793;-23
2023/08/02 02:08:01;;;;;;;;;;;;;;;;;;2215368;66;2591;-23
2023/08/02 02:10:32;;;;;;;;;;;;;;;;;;2215128;66;2303;-23
2023/08/02 02:13:02;;;;;;;;;;;;;;;;;;2215060;58;2029;-23
2023/08/02 02:15:32;;;;;;;;;;;;;;;;;;2213509;66;1820;-23
2023/08/02 02:18:02;;;;;;;;;;;;;;;;;;2215502;66;2029;-23
2023/08/02 02:20:32;;;;;;;;;;;;;;;;;;2215921;66;1914;-23
2023/08/02 02:23:03;;;;;;;;;;;;;;;;;;2215186;66;1745;-23
2023/08/02 02:25:33;;;;;;;;;;;;;;;;;;2216187;66;2701;-23
2023/08/02 02:28:03;;;;;;;;;;;;;;;;;;2215474;58;1820;-23
2023/08/02 02:30:33;;;;;;;;;;;;;;;;;;2215630;58;1726;-23
2023/08/02 02:33:04;;;;;;;;;;;;;;;;;;2215127;58;2440;-23
2023/08/02 02:35:34;;;;;;;;;;;;;;;;;;2216010;66;1277;-23
2023/08/02 02:38:05;;;;;;;;;;;;;;;;;;2214915;58;1775;-23
2023/08/02 02:40:35;;;;;;;;;;;;;;;;;;2215729;66;2119;-23
2023/08/02 02:43:05;;;;;;;;;;;;;;;;;;2214839;59;1928;-23
2023/08/02 02:45:35;;;;;;;;;;;;;;;;;;2215485;58;2565;-23
2023/08/02 02:48:06;;;;;;;;;;;;;;;;;;2213099;59;2509;-23
2023/08/02 02:50:36;;;;;;;;;;;;;;;;;;2216285;66;2107;-23
2023/08/02 02:53:06;;;;;;;;;;;;;;;;;;2216292;59;2159;-23
2023/08/02 02:55:36;;;;;;;;;;;;;;;;;;2217177;58;1755;-23
2023/08/02 02:58:06;;;;;;;;;;;;;;;;;;2216919;59;2742;-24
2023/08/02 03:00:37;;;;;;;;;;;;;;;;;;2217200;58;1924;-23
2023/08/02 03:03:07;;;;;;;;;;;;;;;;;;2216337;66;2025;-24
2023/08/02 03:05:37;;;;;;;;;;;;;;;;;;2216638;58;1753;-24
2023/08/02 03:08:08;;;;;;;;;;;;;;;;;;2216006;66;2442;-23
2023/08/02 03:10:38;;;;;;;;;;;;;;;;;;2212565;59;2548;-23
2023/08/02 03:13:08;;;;;;;;;;;;;;;;;;2213406;59;2338;-23
2023/08/02 03:15:38;;;;;;;;;;;;;;;;;;2216463;66;1851;-23
2023/08/02 03:18:08;;;;;;;;;;;;;;;;;;2214656;66;1906;-23
2023/08/02 03:20:39;;;;;;;;;;;;;;;;;;2216726;66;2372;-23
2023/08/02 03:23:09;;;;;;;;;;;;;;;;;;2212769;66;2177;-23
2023/08/02 03:25:40;;;;;;;;;;;;;;;;;;2217189;66;2401;-23
2023/08/02 03:28:10;;;;;;;;;;;;;;;;;;2216429;58;2796;-23
2023/08/02 03:30:40;;;;;;;;;;;;;;;;;;2213815;58;1964;-23
2023/08/02 03:33:10;;;;;;;;;;;;;;;;;;2215737;58;3252;-23
2023/08/02 03:35:40;;;;;;;;;;;;;;;;;;2216614;66;2401;-23
2023/08/02 03:38:11;;;;;;;;;;;;;;;;;;2215543;58;1439;-23
2023/08/02 03:40:41;;;;;;;;;;;;;;;;;;2216599;66;2584;-23
2023/08/02 03:43:11;;;;;;;;;;;;;;;;;;2215912;66;2994;-23
2023/08/02 03:45:41;;;;;;;;;;;;;;;;;;2216811;58;2457;-23
2023/08/02 03:48:12;;;;;;;;;;;;;;;;;;2215888;66;1785;-24
2023/08/02 03:50:42;;;;;;;;;;;;;;;;;;2217701;58;1568;-23
2023/08/02 03:53:12;;;;;;;;;;;;;;;;;;2216554;58;1975;-23
2023/08/02 03:55:43;;;;;;;;;;;;;;;;;;2216940;58;2154;-23
2023/08/02 03:58:13;;;;;;;;;;;;;;;;;;2212864;66;2289;-23
2023/08/02 04:00:43;;;;;;;;;;;;;;;;;;2216769;58;1932;-24
2023/08/02 04:03:14;;;;;;;;;;;;;;;;;;2215973;66;1866;-23
2023/08/02 04:05:44;;;;;;;;;;;;;;;;;;2214009;59;2285;-23
2023/08/02 04:08:14;;;;;;;;;;;;;;;;;;2213097;66;2629;-23
2023/08/02 04:10:44;;;;;;;;;;;;;;;;;;2216209;66;2456;-23
2023/08/02 04:13:14;;;;;;;;;;;;;;;;;;2214676;58;2792;-23
2023/08/02 04:15:45;;;;;;;;;;;;;;;;;;2216546;66;1673;-23
2023/08/02 04:18:15;;;;;;;;;;;;;;;;;;2216498;66;1437;-24
2023/08/02 04:20:45;;;;;;;;;;;;;;;;;;2216592;66;1303;-23
2023/08/02 04:23:15;;;;;;;;;;;;;;;;;;2211716;66;1781;-23
2023/08/02 04:25:45;;;;;;;;;;;;;;;;;;2213125;66;1331;-23
2023/08/02 04:28:16;;;;;;;;;;;;;;;;;;2216289;66;1588;-23
2023/08/02 04:30:50;;;;;;;;;;;;;;;;;;2214374;58;1947;-23
2023/08/02 04:33:20;;;;;;;;;;;;;;;;;;2215992;58;1936;-23
2023/08/02 04:35:50;;;;;;;;;;;;;;;;;;2216307;66;1236;-23
2023/08/02 04:38:20;;;;;;;;;;;;;;;;;;2216067;58;1283;-24
2023/08/02 04:40:51;;;;;;;;;;;;;;;;;;2216458;59;1231;-23
2023/08/02 04:43:21;;;;;;;;;;;;;;;;;;2216433;66;1585;-24
2023/08/02 04:45:51;;;;;;;;;;;;;;;;;;2216905;58;2087;-24
2023/08/02 04:48:21;;;;;;;;;;;;;;;;;;2216312;66;1605;-24
2023/08/02 04:50:51;;;;;;;;;;;;;;;;;;2213490;59;1357;-24
2023/08/02 04:53:22;;;;;;;;;;;;;;;;;;2215459;58;1935;-24
2023/08/02 04:55:52;;;;;;;;;;;;;;;;;;2216829;58;1424;-24
2023/08/02 04:58:23;;;;;;;;;;;;;;;;;;2216377;66;1771;-24
2023/08/02 05:00:54;;;;;;;;;;;;;;;;;;2216144;58;1265;-24
2023/08/02 05:03:24;;;;;;;;;;;;;;;;;;2216549;66;2085;-24
2023/08/02 05:05:58;;;;;;;;;;;;;;;;;;2216115;66;1409;-24
2023/08/02 05:08:30;;;;;;;;;;;;;;;;;;2216671;66;1296;-24
2023/08/02 05:11:00;;;;;;;;;;;;;;;;;;2216115;66;2624;-24
2023/08/02 05:13:30;;;;;;;;;;;;;;;;;;2211691;59;3558;-25
2023/08/02 05:16:01;;;;;;;;;;;;;;;;;;2215654;66;2585;-25
2023/08/02 05:18:31;;;;;;;;;;;;;;;;;;2216414;66;1760;-25
2023/08/02 05:21:01;;;;;;;;;;;;;;;;;;2212828;66;2834;-25
2023/08/02 05:23:31;;;;;;;;;;;;;;;;;;2209806;66;1565;-25
2023/08/02 05:26:05;;;;;;;;;;;;;;;;;;2215656;58;1809;-25
2023/08/02 05:28:37;;;;;;;;;;;;;;;;;;2216623;59;2254;-25
2023/08/02 05:31:11;;;;;;;;;;;;;;;;;;2215846;58;2687;-25
2023/08/02 05:33:43;;;;;;;;;;;;;;;;;;2216662;59;1956;-25
2023/08/02 05:36:14;;;;;;;;;;;;;;;;;;2216363;66;1792;-25
2023/08/02 05:38:45;;;;;;;;;;;;;;;;;;2213368;59;2829;-25
2023/08/02 05:41:15;;;;;;;;;;;;;;;;;;2215756;66;2693;-26
2023/08/02 05:43:45;;;;;;;;;;;;;;;;;;2216786;66;2040;-25
2023/08/02 05:46:15;;;;;;;;;;;;;;;;;;2216051;58;1760;-25
2023/08/02 05:48:46;;;;;;;;;;;;;;;;;;2214424;66;2535;-25
2023/08/02 05:51:16;;;;;;;;;;;;;;;;;;2212775;59;2852;-25
2023/08/02 05:53:46;;;;;;;;;;;;;;;;;;2216313;58;1928;-25
2023/08/02 05:56:16;;;;;;;;;;;;;;;;;;2212932;59;1976;-26
2023/08/02 05:58:47;;;;;;;;;;;;;;;;;;2210679;66;1995;-25
2023/08/02 06:01:19;;;;;;;;;;;;;;;;;;2213482;59;1956;-25
2023/08/02 06:03:49;;;;;;;;;;;;;;;;;;2213444;59;2007;-25
2023/08/02 06:06:20;;;;;;;;;;;;;;;;;;2215379;66;2326;-25
2023/08/02 06:08:50;;;;;;;;;;;;;;;;;;2218266;66;2220;-25
2023/08/02 06:11:21;;;;;;;;;;;;;;;;;;2218661;59;1717;-25
2023/08/02 06:13:51;;;;;;;;;;;;;;;;;;2212528;66;3355;-25
2023/08/02 06:16:22;;;;;;;;;;;;;;;;;;2216072;66;2608;-26
2023/08/02 06:18:53;;;;;;;;;;;;;;;;;;2212995;59;1734;-26
2023/08/02 06:21:23;;;;;;;;;;;;;;;;;;2212972;66;1746;-26
2023/08/02 06:23:53;;;;;;;;;;;;;;;;;;2213465;66;3118;-26
2023/08/02 06:26:23;;;;;;;;;;;;;;;;;;2210228;59;2159;-26
2023/08/02 06:28:54;;;;;;;;;;;;;;;;;;2211292;59;2468;-27
2023/08/02 06:31:24;;;;;;;;;;;;;;;;;;2211388;59;2159;-26
2023/08/02 06:33:56;;;;;;;;;;;;;;;;;;2213876;59;2465;-27
2023/08/02 06:36:26;;;;;;;;;;;;;;;;;;2217428;66;1737;-27
2023/08/02 06:38:56;;;;;;;;;;;;;;;;;;2216789;58;2257;-27
2023/08/02 06:41:26;;;;;;;;;;;;;;;;;;2214234;66;3468;-27
2023/08/02 06:43:57;;;;;;;;;;;;;;;;;;2217032;66;2977;-28
2023/08/02 06:46:30;;;;;;;;;;;;;;;;;;2214431;59;1867;-28
2023/08/02 06:49:01;;;;;;;;;;;;;;;;;;2216630;66;2400;-28
2023/08/02 06:51:31;;;;;;;;;;;;;;;;;;2217194;58;2147;-28
2023/08/02 06:54:02;;;;;;;;;;;;;;;;;;2216312;58;2724;-28
2023/08/02 06:56:32;;;;;;;;;;;;;;;;;;2213706;59;2514;-28
2023/08/02 06:59:02;;;;;;;;;;;;;;;;;;2213847;66;1668;-28
2023/08/02 07:01:32;;;;;;;;;;;;;;;;;;2213367;59;1824;-28
2023/08/02 07:04:03;;;;;;;;;;;;;;;;;;2210923;59;2852;-28
2023/08/02 07:06:33;;;;;;;;;;;;;;;;;;2213805;66;1825;-27
2023/08/02 07:09:03;;;;;;;;;;;;;;;;;;2216791;66;1887;-28
2023/08/02 07:11:34;;;;;;;;;;;;;;;;;;2217079;66;1884;-28
2023/08/02 07:14:04;;;;;;;;;;;;;;;;;;2212935;66;2533;-28
2023/08/02 07:16:35;;;;;;;;;;;;;;;;;;2216211;59;2163;-28
2023/08/02 07:19:05;;;;;;;;;;;;;;;;;;2216328;58;2182;-28
2023/08/02 07:21:35;;;;;;;;;;;;;;;;;;2216400;66;1852;-28
2023/08/02 07:24:06;;;;;;;;;;;;;;;;;;2216037;66;2483;-28
2023/08/02 07:26:36;;;;;;;;;;;;;;;;;;2217313;58;1643;-28
2023/08/02 07:29:06;;;;;;;;;;;;;;;;;;2216936;66;1588;-28
2023/08/02 07:31:37;;;;;;;;;;;;;;;;;;2217412;58;1920;-28
2023/08/02 07:34:07;;;;;;;;;;;;;;;;;;2209832;66;2621;-27
2023/08/02 07:36:37;;;;;;;;;;;;;;;;;;2213673;66;1376;-27
2023/08/02 07:39:08;;;;;;;;;;;;;;;;;;2214195;58;1746;-26
2023/08/02 07:41:38;;;;;;;;;;;;;;;;;;2217707;66;1595;-28
2023/08/02 07:44:09;;;;;;;;;;;;;;;;;;2214966;66;2205;-28
2023/08/02 07:46:39;;;;;;;;;;;;;;;;;;2215870;59;1564;-28
2023/08/02 07:49:10;;;;;;;;;;;;;;;;;;2216298;66;1674;-28
2023/08/02 07:51:40;;;;;;;;;;;;;;;;;;2217415;58;2199;-27
2023/08/02 07:54:10;;;;;;;;;;;;;;;;;;2209773;59;2262;-28
2023/08/02 07:56:41;;;;;;;;;;;;;;;;;;2217362;58;1885;-28
2023/08/02 07:59:11;;;;;;;;;;;;;;;;;;2216785;66;1614;-27
2023/08/02 08:01:44;;;;;;;;;;;;;;;;;;2214242;59;1656;-27
2023/08/02 08:04:14;;;;;;;;;;;;;;;;;;2217071;58;1560;-30
2023/08/02 08:06:47;;;;;;;;;;;;;;;;;;2216748;66;1463;-28
2023/08/02 08:09:23;;;;;;;;;;;;;;;;;;2216461;66;1355;-28
2023/08/02 08:11:54;;;;;;;;;;;;;;;;;;2216915;58;1936;-28
2023/08/02 08:14:24;;;;;;;;;;;;;;;;;;2212720;66;2348;-27
2023/08/02 08:16:56;;;;;;;;;;;;;;;;;;2215690;63;2551;-27
2023/08/02 08:19:27;;;;;;;;;;;;;;;;;;2213766;66;2216;-26
2023/08/02 08:21:57;;;;;;;;;;;;;;;;;;2217219;66;3238;-27
2023/08/02 08:24:28;;;;;;;;;;;;;;;;;;2213805;66;2022;-26
2023/08/02 08:26:58;;;;;;;;;;;;;;;;;;2217087;66;2189;-26
2023/08/02 08:29:28;;;;;;;;;;;;;;;;;;2216443;66;2339;-26
2023/08/02 08:31:59;;;;;;;;;;;;;;;;;;2216594;58;2057;-26
2023/08/02 08:34:29;;;;;;;;;;;;;;;;;;2216294;66;2385;-26
2023/08/02 08:36:59;;;;;;;;;;;;;;;;;;2215689;59;1776;-26
2023/08/02 08:39:29;;;;;;;;;;;;;;;;;;2213386;59;2947;-27
2023/08/02 08:42:00;;;;;;;;;;;;;;;;;;2216446;66;1813;-27
2023/08/02 08:44:30;;;;;;;;;;;;;;;;;;2217121;58;1637;-27
2023/08/02 08:47:03;;;;;;;;;;;;;;;;;;2216255;66;1918;-26
2023/08/02 08:49:33;;;;;;;;;;;;;;;;;;2215689;58;2448;-27
2023/08/02 08:52:05;;;;;;;;;;;;;;;;;;2213843;58;1993;-26
2023/08/02 08:54:37;;;;;;;;;;;;;;;;;;2216172;59;1779;-26
2023/08/02 08:57:07;;;;;;;;;;;;;;;;;;2216185;66;2573;-26
2023/08/02 08:59:38;;;;;;;;;;;;;;;;;;2216292;66;2806;-26
2023/08/02 09:02:09;;;;;;;;;;;;;;;;;;2216361;58;1786;-26
2023/08/02 09:04:40;;;;;;;;;;;;;;;;;;2212018;59;2729;-26
2023/08/02 09:07:10;;;;;;;;;;;;;;;;;;2215043;66;1897;-26
2023/08/02 09:09:40;;;;;;;;;;;;;;;;;;2213483;66;1858;-26
2023/08/02 09:12:14;;;;;;;;;;;;;;;;;;2216423;58;1991;-26
2023/08/02 09:15:04;;;;;;;;;;;;;;;;;;2216301;66;2826;-26
2023/08/02 09:17:44;;;;;;;;;;;;;;;;;;2212255;59;2442;-26
2023/08/02 09:20:15;;;;;;;;;;;;;;;;;;2216418;66;1816;-26
2023/08/02 09:22:45;;;;;;;;;;;;;;;;;;2216542;66;1924;-26
2023/08/02 09:25:23;;;;;;;;;;;;;;;;;;2215970;59;2095;-25
2023/08/02 09:27:55;;;;;;;;;;;;;;;;;;2216328;58;2061;-25
2023/08/02 09:30:25;;;;;;;;;;;;;;;;;;2216394;58;1674;-26
2023/08/02 09:32:59;;;;;;;;;;;;;;;;;;2213342;59;2008;-25
2023/08/02 09:35:45;;;;;;;;;;;;;;;;;;2215695;66;1865;-26
2023/08/02 09:38:16;;;;;;;;;;;;;;;;;;2215558;58;2034;-26
2023/08/02 09:40:47;;;;;;;;;;;;;;;;;;2209559;66;2420;-25
2023/08/02 09:43:18;;;;;;;;;;;;;;;;;;2212715;66;1756;-26
2023/08/02 09:45:49;;;;;;;;;;;;;;;;;;2216366;58;1984;-26
2023/08/02 09:48:19;;;;;;;;;;;;;;;;;;2216020;66;2214;-26
2023/08/02 09:50:54;;;;;;;;;;;;;;;;;;2213377;58;1867;-25
2023/08/02 09:53:25;;;;;;;;;;;;;;;;;;2213800;59;2338;-23
2023/08/02 09:55:55;;;;;;;;;;;;;;;;;;2210532;59;2675;-23
2023/08/02 09:58:27;;;;;;;;;;;;;;;;;;2216690;66;1912;-23
2023/08/02 10:01:01;;;;;;;;;;;;;;;;;;2214719;58;3091;-23
2023/08/02 10:03:33;;;;;;;;;;;;;;;;;;2207404;58;1936;-24
2023/08/02 10:06:06;;;;;;;;;;;;;;;;;;2213397;66;1983;-24
2023/08/02 10:08:39;;;;;;;;;;;;;;;;;;2216021;66;2932;-24
2023/08/02 10:11:10;;;;;;;;;;;;;;;;;;2215600;66;2598;-24
2023/08/02 10:13:44;;;;;;;;;;;;;;;;;;2215821;58;1984;-24
2023/08/02 10:16:16;;;;;;;;;;;;;;;;;;2212418;59;2042;-24
2023/08/02 10:18:48;;;;;;;;;;;;;;;;;;2209585;66;2717;-24
2023/08/02 10:21:18;;;;;;;;;;;;;;;;;;2215938;66;1618;-24
2023/08/02 10:23:49;;;;;;;;;;;;;;;;;;2216454;66;2273;-24
2023/08/02 10:26:20;;;;;;;;;;;;;;;;;;2216800;58;1871;-24
2023/08/02 10:28:51;;;;;;;;;;;;;;;;;;2213936;59;3283;-24
2023/08/02 10:31:22;;;;;;;;;;;;;;;;;;2209682;59;2633;-24
2023/08/02 10:33:52;;;;;;;;;;;;;;;;;;2213634;59;1933;-24
2023/08/02 10:36:25;;;;;;;;;;;;;;;;;;2213176;66;2008;-24
2023/08/02 10:38:55;;;;;;;;;;;;;;;;;;2216387;58;2555;-24
2023/08/02 10:41:27;;;;;;;;;;;;;;;;;;2210285;66;2252;-24
2023/08/02 10:43:58;;;;;;;;;;;;;;;;;;2209930;66;1736;-24
2023/08/02 10:46:29;;;;;;;;;;;;;;;;;;2213269;59;1935;-24
2023/08/02 10:49:08;;;;;;;;;;;;;;;;;;2211180;66;3204;-24
2023/08/02 10:51:39;;;;;;;;;;;;;;;;;;2216677;58;1808;-24
2023/08/02 10:54:14;;;;;;;;;;;;;;;;;;2216420;58;1946;-24
2023/08/02 10:56:51;;;;;;;;;;;;;;;;;;2217215;58;2327;-24
2023/08/02 10:59:24;;;;;;;;;;;;;;;;;;2216314;66;1927;-24
2023/08/02 11:01:57;;;;;;;;;;;;;;;;;;2216440;58;1668;-24
2023/08/02 11:04:30;;;;;;;;;;;;;;;;;;2216675;58;1314;-24
2023/08/02 11:07:13;;;;;;;;;;;;;;;;;;2210816;66;1475;-23
2023/08/02 11:09:43;;;;;;;;;;;;;;;;;;2216901;59;1641;-22
2023/08/02 11:12:15;;;;;;;;;;;;;;;;;;2216389;59;1994;-23
2023/08/02 11:14:47;;;;;;;;;;;;;;;;;;2211570;66;2112;-22
2023/08/02 11:17:22;;;;;;;;;;;;;;;;;;2216083;59;2560;-22
2023/08/02 11:19:53;;;;;;;;;;;;;;;;;;2216430;59;2117;-22
2023/08/02 11:22:23;;;;;;;;;;;;;;;;;;2217154;59;2831;-22
2023/08/02 11:24:55;;;;;;;;;;;;;;;;;;2214639;66;1885;-22
2023/08/02 11:27:26;;;;;;;;;;;;;;;;;;2213827;66;2128;-22
2023/08/02 11:29:57;;;;;;;;;;;;;;;;;;2217364;66;2006;-22
2023/08/02 11:32:28;;;;;;;;;;;;;;;;;;2217546;58;2576;-22
2023/08/02 11:34:59;;;;;;;;;;;;;;;;;;2217066;66;1896;-22
2023/08/02 11:37:29;;;;;;;;;;;;;;;;;;2216438;66;2000;-22
2023/08/02 11:40:01;;;;;;;;;;;;;;;;;;2216292;66;2142;-22
2023/08/02 11:42:31;;;;;;;;;;;;;;;;;;2216424;66;1716;-22
2023/08/02 11:45:01;;;;;;;;;;;;;;;;;;2216242;58;2836;-22
2023/08/02 11:47:35;;;;;;;;;;;;;;;;;;2216581;58;2051;-22
2023/08/02 11:50:05;;;;;;;;;;;;;;;;;;2210180;58;1640;-22
2023/08/02 11:52:35;;;;;;;;;;;;;;;;;;2216418;58;1939;-22
2023/08/02 11:55:06;;;;;;;;;;;;;;;;;;2215924;66;1343;-22
2023/08/02 11:57:39;;;;;;;;;;;;;;;;;;2216371;58;1620;-22
2023/08/02 12:00:10;;;;;;;;;;;;;;;;;;2216272;58;1759;-22
2023/08/02 12:02:40;;;;;;;;;;;;;;;;;;2216955;66;1158;-22
2023/08/02 12:05:20;;;;;;;;;;;;;;;;;;2216106;58;1701;-24
2023/08/02 12:07:51;;;;;;;;;;;;;;;;;;2215669;58;2190;-22
2023/08/02 12:10:28;;;;;;;;;;;;;;;;;;2216468;58;2187;-22
2023/08/02 12:13:08;;;;;;;;;;;;;;;;;;2213049;58;2090;-22
2023/08/02 12:15:38;;;;;;;;;;;;;;;;;;2212423;66;2481;-22
2023/08/02 12:18:08;;;;;;;;;;;;;;;;;;2215880;66;2468;-22
2023/08/02 12:20:39;;;;;;;;;;;;;;;;;;2209953;66;3329;-22
2023/08/02 12:23:09;;;;;;;;;;;;;;;;;;2214925;58;2155;-22
2023/08/02 12:25:44;;;;;;;;;;;;;;;;;;2216759;66;2002;-22
2023/08/02 12:28:14;;;;;;;;;;;;;;;;;;2215693;66;2097;-22
2023/08/02 12:31:03;;;;;;;;;;;;;;;;;;2216091;58;2118;-22
2023/08/02 12:33:33;;;;;;;;;;;;;;;;;;2216306;58;2901;-24
2023/08/02 12:36:04;;;;;;;;;;;;;;;;;;2212611;66;1983;-24
2023/08/02 12:38:34;;;;;;;;;;;;;;;;;;2214436;58;2681;-24
2023/08/02 12:41:04;;;;;;;;;;;;;;;;;;2215851;66;2046;-24
2023/08/02 12:43:34;;;;;;;;;;;;;;;;;;2216408;66;2685;-24
2023/08/02 12:46:05;;;;;;;;;;;;;;;;;;2215481;58;2312;-24
2023/08/02 12:48:35;;;;;;;;;;;;;;;;;;2215784;66;2622;-24
2023/08/02 12:51:05;;;;;;;;;;;;;;;;;;2212891;58;2137;-24
2023/08/02 12:53:38;;;;;;;;;;;;;;;;;;2216114;58;1972;-24
2023/08/02 12:56:09;;;;;;;;;;;;;;;;;;2215581;58;2831;-24
2023/08/02 12:58:39;;;;;;;;;;;;;;;;;;2216672;66;2093;-24
2023/08/02 13:01:12;;;;;;;;;;;;;;;;;;2216545;58;2402;-24
2023/08/02 13:03:43;;;;;;;;;;;;;;;;;;2216624;66;2070;-22
2023/08/02 13:06:14;;;;;;;;;;;;;;;;;;2213030;66;2474;-22
2023/08/02 13:08:44;;;;;;;;;;;;;;;;;;2216911;66;1924;-22
2023/08/02 13:11:14;;;;;;;;;;;;;;;;;;2215629;58;1953;-22
2023/08/02 13:13:44;;;;;;;;;;;;;;;;;;2216574;66;1947;-22
2023/08/02 13:16:14;;;;;;;;;;;;;;;;;;2215626;66;2423;-22
2023/08/02 13:18:45;;;;;;;;;;;;;;;;;;2216448;59;2399;-22
2023/08/02 13:21:15;;;;;;;;;;;;;;;;;;2214744;66;3379;-22
2023/08/02 13:23:47;;;;;;;;;;;;;;;;;;2216849;66;2078;-22
2023/08/02 13:26:17;;;;;;;;;;;;;;;;;;2215785;58;2097;-22
2023/08/02 13:28:47;;;;;;;;;;;;;;;;;;2216374;59;1887;-22
2023/08/02 13:31:17;;;;;;;;;;;;;;;;;;2213299;59;2617;-22
2023/08/02 13:33:48;;;;;;;;;;;;;;;;;;2216171;58;2789;-22
2023/08/02 13:36:18;;;;;;;;;;;;;;;;;;2212385;66;1898;-22
2023/08/02 13:38:48;;;;;;;;;;;;;;;;;;2210543;59;2362;-22
2023/08/02 13:41:18;;;;;;;;;;;;;;;;;;2212534;59;2807;-22
2023/08/02 13:43:48;;;;;;;;;;;;;;;;;;2215853;59;1619;-22
2023/08/02 13:46:19;;;;;;;;;;;;;;;;;;2215671;66;2096;-22
2023/08/02 13:48:49;;;;;;;;;;;;;;;;;;2213484;66;2533;-23
2023/08/02 13:51:19;;;;;;;;;;;;;;;;;;2213424;59;1983;-23
2023/08/02 13:53:49;;;;;;;;;;;;;;;;;;2215688;66;2354;-22
2023/08/02 13:56:19;;;;;;;;;;;;;;;;;;2213056;59;2379;-23
2023/08/02 13:58:50;;;;;;;;;;;;;;;;;;2216114;66;2078;-23
2023/08/02 14:01:20;;;;;;;;;;;;;;;;;;2215363;58;2086;-23
2023/08/02 14:03:50;;;;;;;;;;;;;;;;;;2215952;58;2064;-23
2023/08/02 14:06:21;;;;;;;;;;;;;;;;;;2214703;66;2081;-22
2023/08/02 14:08:51;;;;;;;;;;;;;;;;;;2215879;66;1999;-23
2023/08/02 14:11:21;;;;;;;;;;;;;;;;;;2215686;58;2803;-23
2023/08/02 14:13:51;;;;;;;;;;;;;;;;;;2207192;53;1939;-20
2023/08/02 14:16:22;;;;;;;;;;;;;;;;;;2193928;67;1829;-20
2023/08/02 14:18:52;;;;;;;;;;;;;;;;;;2196277;67;1587;-21
2023/08/02 14:21:22;;;;;;;;;;;;;;;;;;2195250;59;2209;-20
2023/08/02 14:23:52;;;;;;;;;;;;;;;;;;2194848;67;2138;-21
2023/08/02 14:26:24;;;;;;;;;;;;;;;;;;2196390;59;1934;-20
2023/08/02 14:28:54;;;;;;;;;;;;;;;;;;2195754;66;1748;-20
2023/08/02 14:31:24;;;;;;;;;;;;;;;;;;2195563;59;1704;-20
2023/08/02 14:33:55;;;;;;;;;;;;;;;;;;2195800;58;1987;-20
2023/08/02 14:36:25;;;;;;;;;;;;;;;;;;2195883;59;1471;-21
2023/08/02 14:38:55;;;;;;;;;;;;;;;;;;2195109;66;1697;-21
2023/08/02 14:41:25;;;;;;;;;;;;;;;;;;2195648;67;1348;-21
2023/08/02 14:43:56;;;;;;;;;;;;;;;;;;2194955;67;1885;-21
2023/08/02 14:46:26;;;;;;;;;;;;;;;;;;2196435;59;1483;-20
2023/08/02 14:48:56;;;;;;;;;;;;;;;;;;2195964;66;1592;-20
2023/08/02 14:51:26;;;;;;;;;;;;;;;;;;2196009;59;1499;-20
2023/08/02 14:53:57;;;;;;;;;;;;;;;;;;2195443;59;1983;-21
2023/08/02 14:56:27;;;;;;;;;;;;;;;;;;2196720;59;1639;-21
2023/08/02 14:58:57;;;;;;;;;;;;;;;;;;2195627;66;1799;-21
2023/08/02 15:01:27;;;;;;;;;;;;;;;;;;2196863;59;1111;-20
2023/08/02 15:03:58;;;;;;;;;;;;;;;;;;2196504;58;1686;-20
2023/08/02 15:06:28;;;;;;;;;;;;;;;;;;2195860;66;1647;-21
2023/08/02 15:08:58;;;;;;;;;;;;;;;;;;2196270;67;1366;-21
2023/08/02 15:11:28;;;;;;;;;;;;;;;;;;2196553;59;2355;-20
2023/08/02 15:13:59;;;;;;;;;;;;;;;;;;2195694;59;1992;-20
2023/08/02 15:16:29;;;;;;;;;;;;;;;;;;2196186;66;1674;-21
2023/08/02 15:18:59;;;;;;;;;;;;;;;;;;2195040;66;2194;-20
2023/08/02 15:21:29;;;;;;;;;;;;;;;;;;2195967;58;2786;-21
2023/08/02 15:24:00;;;;;;;;;;;;;;;;;;2195145;60;2551;-21
2023/08/02 15:26:30;;;;;;;;;;;;;;;;;;2195875;59;2105;-21
2023/08/02 15:29:00;;;;;;;;;;;;;;;;;;2195773;66;1858;-21
2023/08/02 15:31:30;;;;;;;;;;;;;;;;;;2196653;59;1320;-21
2023/08/02 15:34:01;;;;;;;;;;;;;;;;;;2195830;58;2027;-21
2023/08/02 15:36:31;;;;;;;;;;;;;;;;;;2195756;66;2108;-20
2023/08/02 15:39:01;;;;;;;;;;;;;;;;;;2196176;66;2164;-20
2023/08/02 15:41:31;;;;;;;;;;;;;;;;;;2196385;66;2054;-20
2023/08/02 15:44:02;;;;;;;;;;;;;;;;;;2196253;67;1933;-20
2023/08/02 15:46:33;;;;;;;;;;;;;;;;;;2196275;59;1970;-20
2023/08/02 15:49:03;;;;;;;;;;;;;;;;;;2197084;66;2177;-20
2023/08/02 15:51:33;;;;;;;;;;;;;;;;;;2196514;59;1876;-20
2023/08/02 15:54:03;;;;;;;;;;;;;;;;;;2196057;58;1936;-20
2023/08/02 15:56:33;;;;;;;;;;;;;;;;;;2196538;59;1767;-20
2023/08/02 15:59:04;;;;;;;;;;;;;;;;;;2195534;66;1712;-20
2023/08/02 16:01:34;;;;;;;;;;;;;;;;;;2196601;59;1141;-20
2023/08/02 16:04:07;;;;;;;;;;;;;;;;;;2196331;58;1752;-20
2023/08/02 16:06:37;;;;;;;;;;;;;;;;;;2196174;67;1314;-20
2023/08/02 16:09:08;;;;;;;;;;;;;;;;;;2196043;66;1584;-20
2023/08/02 16:11:38;;;;;;;;;;;;;;;;;;2196226;59;2077;-20
2023/08/02 16:14:08;;;;;;;;;;;;;;;;;;2195506;59;2071;-20
2023/08/02 16:16:38;;;;;;;;;;;;;;;;;;2195994;66;1303;-20
2023/08/02 16:19:09;;;;;;;;;;;;;;;;;;2195941;66;1751;-20
2023/08/02 16:21:39;;;;;;;;;;;;;;;;;;2196579;66;1264;-21
2023/08/02 16:24:10;;;;;;;;;;;;;;;;;;2194635;64;3060;-20
2023/08/02 16:26:40;;;;;;;;;;;;;;;;;;2195459;59;2258;-20
2023/08/02 16:29:10;;;;;;;;;;;;;;;;;;2195802;67;1866;-20
2023/08/02 16:31:41;;;;;;;;;;;;;;;;;;2196645;59;2669;-21
2023/08/02 16:34:15;;;;;;;;;;;;;;;;;;2195907;58;2008;-21
2023/08/02 16:36:45;;;;;;;;;;;;;;;;;;2195786;66;1839;-21
2023/08/02 16:39:15;;;;;;;;;;;;;;;;;;2195243;66;2296;-20
2023/08/02 16:41:45;;;;;;;;;;;;;;;;;;2195609;66;1493;-20
2023/08/02 16:44:16;;;;;;;;;;;;;;;;;;2196144;59;1521;-20
2023/08/02 16:46:46;;;;;;;;;;;;;;;;;;2196334;66;1745;-20
2023/08/02 16:49:19;;;;;;;;;;;;;;;;;;2195750;59;1287;-20
2023/08/02 16:51:49;;;;;;;;;;;;;;;;;;2196044;59;1363;-20
2023/08/02 16:54:20;;;;;;;;;;;;;;;;;;2195513;58;1980;-20
2023/08/02 16:56:51;;;;;;;;;;;;;;;;;;2196256;59;1171;-20
2023/08/02 16:59:21;;;;;;;;;;;;;;;;;;2195149;67;1656;-22
2023/08/02 17:01:51;;;;;;;;;;;;;;;;;;2196751;59;1537;-20
2023/08/02 17:04:21;;;;;;;;;;;;;;;;;;2196326;58;1390;-23
2023/08/02 17:06:52;;;;;;;;;;;;;;;;;;2197882;66;1769;-23
2023/08/02 17:09:22;;;;;;;;;;;;;;;;;;2197858;59;1617;-23
2023/08/02 17:11:52;;;;;;;;;;;;;;;;;;2195899;59;1426;-20
2023/08/02 17:14:23;;;;;;;;;;;;;;;;;;2195492;59;1945;-20
2023/08/02 17:16:54;;;;;;;;;;;;;;;;;;2196153;66;1987;-22
2023/08/02 17:19:25;;;;;;;;;;;;;;;;;;2194632;67;1193;-23
2023/08/02 17:21:55;;;;;;;;;;;;;;;;;;2195078;67;1364;-23
2023/08/02 17:24:26;;;;;;;;;;;;;;;;;;2196617;66;2650;-23
2023/08/02 17:26:56;;;;;;;;;;;;;;;;;;2195633;59;2412;-20
2023/08/02 17:29:26;;;;;;;;;;;;;;;;;;2195939;67;1934;-20